createdAt,value
2018-02-03T00:06:45.366Z,3.50
2018-02-03T00:16:46.893Z,3.40
2018-02-03T00:26:48.442Z,3.60
2018-02-03T00:36:50.201Z,3.70
2018-02-03T00:46:52.481Z,3.60
2018-02-03T00:56:54.057Z,3.60
2018-02-03T01:06:55.641Z,3.50
2018-02-03T01:16:57.313Z,3.50
2018-02-03T01:26:58.922Z,3.70
2018-02-03T01:37:00.432Z,3.70
2018-02-03T01:47:01.957Z,3.70
2018-02-03T01:57:03.538Z,3.50
2018-02-03T02:07:05.068Z,3.10
2018-02-03T02:17:06.570Z,3.00
2018-02-03T02:27:08.152Z,3.10
2018-02-03T02:37:09.700Z,3.20
2018-02-03T02:47:11.281Z,3.30
2018-02-03T02:57:13.033Z,3.30
2018-02-03T03:07:15.368Z,3.00
2018-02-03T03:17:16.942Z,3.00
2018-02-03T03:27:18.663Z,3.10
2018-02-03T03:37:20.924Z,3.10
2018-02-03T03:47:22.494Z,3.00
2018-02-03T03:57:24.027Z,3.10
2018-02-03T04:07:26.434Z,3.10
2018-02-03T04:17:27.980Z,3.10
2018-02-03T04:27:29.547Z,3.10
2018-02-03T04:47:38.611Z,3.30
2018-02-03T04:57:40.302Z,3.30
2018-02-03T05:07:41.886Z,3.20
2018-02-03T05:17:43.381Z,3.10
2018-02-03T05:27:44.923Z,3.10
2018-02-03T05:37:46.518Z,3.20
2018-02-03T05:47:48.095Z,3.30
2018-02-03T05:57:49.887Z,2.80
2018-02-03T06:07:51.514Z,2.70
2018-02-03T06:17:53.033Z,2.60
2018-02-03T06:27:55.274Z,2.60
2018-02-03T06:37:56.829Z,2.50
2018-02-03T06:47:58.567Z,2.80
2018-02-03T06:58:00.836Z,2.90
2018-02-03T07:08:02.379Z,2.80
2018-02-03T07:18:04.616Z,3.10
2018-02-03T07:28:06.081Z,3.00
2018-02-03T07:38:08.346Z,3.20
2018-02-03T07:48:09.870Z,3.10
2018-02-03T07:58:11.729Z,3.20
2018-02-03T08:08:13.255Z,3.30
2018-02-03T08:18:14.852Z,3.50
2018-02-03T08:28:16.350Z,3.70
2018-02-03T08:38:17.991Z,3.90
2018-02-03T08:48:19.527Z,4.30
2018-02-03T08:58:21.314Z,4.60
2018-02-03T09:08:23.621Z,5.80
2018-02-03T09:18:25.159Z,5.70
2018-02-03T09:28:27.555Z,6.20
2018-02-03T09:38:29.856Z,5.90
2018-02-03T09:48:31.450Z,5.80
2018-02-03T09:58:32.976Z,6.30
2018-02-03T10:08:35.318Z,6.80
2018-02-03T10:18:36.968Z,6.70
2018-02-03T10:28:38.558Z,6.50
2018-02-03T10:38:40.105Z,6.90
2018-02-03T10:48:42.360Z,6.60
2018-02-03T10:58:44.119Z,6.50
2018-02-03T11:08:46.414Z,6.80
2018-02-03T11:18:47.945Z,6.80
2018-02-03T11:28:49.455Z,7.00
2018-02-03T11:38:51.225Z,7.50
2018-02-03T11:48:52.971Z,7.70
2018-02-03T11:58:54.765Z,7.10
2018-02-03T12:08:56.374Z,7.00
2018-02-03T12:18:57.897Z,7.20
2018-02-03T12:28:59.382Z,7.20
2018-02-03T12:39:01.096Z,7.20
2018-02-03T12:49:02.656Z,6.70
2018-02-03T12:59:04.992Z,7.10
2018-02-03T13:09:06.548Z,7.00
2018-02-03T13:19:08.183Z,7.50
2018-02-03T13:29:09.686Z,7.50
2018-02-03T13:39:11.196Z,7.40
2018-02-03T13:49:12.698Z,7.00
2018-02-03T13:59:14.207Z,7.10
2018-02-03T14:09:15.682Z,7.00
2018-02-03T14:19:17.377Z,7.00
2018-02-03T14:29:19.799Z,6.30
2018-02-03T14:39:21.398Z,6.20
2018-02-03T14:49:23.823Z,6.20
2018-02-03T14:59:25.379Z,6.20
2018-02-03T15:09:26.918Z,6.10
2018-02-03T15:19:29.200Z,5.90
2018-02-03T15:29:30.751Z,5.80
2018-02-03T15:39:32.349Z,5.70
2018-02-03T15:49:33.865Z,5.70
2018-02-03T15:59:35.452Z,4.40
2018-02-03T16:09:36.930Z,3.40
2018-02-03T16:19:39.174Z,3.40
2018-02-03T16:29:47.739Z,3.30
2018-02-03T16:39:49.268Z,3.40
2018-02-03T16:49:50.863Z,3.50
2018-02-03T16:59:55.876Z,3.60
2018-02-03T17:09:57.533Z,3.60
2018-02-03T17:20:06.236Z,3.40
2018-02-03T17:30:07.751Z,3.40
2018-02-03T17:40:09.974Z,3.40
2018-02-03T17:50:12.266Z,3.50
2018-02-03T18:00:13.809Z,3.40
2018-02-03T18:10:15.353Z,3.60
2018-02-03T18:20:17.003Z,3.50
2018-02-03T18:30:18.598Z,3.20
2018-02-03T18:40:21.557Z,3.00
2018-02-03T18:50:28.191Z,3.00
2018-02-03T19:00:29.725Z,3.00
2018-02-03T19:10:31.388Z,2.70
2018-02-03T19:20:34.053Z,2.60
2018-02-03T19:30:42.522Z,2.50
2018-02-03T19:40:44.960Z,2.40
2018-02-03T19:50:47.488Z,2.20
2018-02-03T20:00:49.865Z,1.90
2018-02-03T20:10:51.460Z,1.90
2018-02-03T20:20:53.028Z,1.90
2018-02-03T20:30:54.727Z,1.70
2018-02-03T20:40:56.393Z,1.50
2018-02-03T20:50:58.844Z,1.20
2018-02-03T21:01:00.429Z,1.20
2018-02-03T21:11:02.918Z,1.00
2018-02-03T21:21:04.452Z,0.90
2018-02-03T21:31:06.863Z,0.90
2018-02-03T21:41:09.128Z,1.00
2018-02-03T21:51:10.658Z,0.90
2018-02-03T22:01:12.282Z,1.10
2018-02-03T22:11:14.606Z,1.20
2018-02-03T22:21:16.962Z,1.60
2018-02-03T22:31:18.503Z,1.50
2018-02-03T22:41:20.189Z,1.40
2018-02-03T22:51:21.772Z,1.40
2018-02-03T23:01:23.320Z,1.40
2018-02-03T23:11:25.657Z,1.70
2018-02-03T23:21:27.251Z,1.60
2018-02-03T23:31:28.800Z,1.80
2018-02-03T23:41:30.441Z,1.50
2018-02-03T23:51:32.874Z,1.60
